Time;durP1;ratioP1;P1;durP2;ratioP2;P2;SDS_P1;SDS_P2;PMS_P1;PMS_P2;Temp;Humidity;BMP_temperature;BMP_pressure;BME280_temperature;BME280_humidity;BME280_pressure;Samples;Min_cycle;Max_cycle;Signal;HPM_P1;HPM_P2
2022/05/11 00:02:49;;;;;;;12.45;4.58;;;;;;;6.15;51.55;100209.14;1680525;85;21225;-78
2022/05/11 00:05:56;;;;;;;13.40;4.60;;;;;;;6.04;51.75;100207.48;1680345;85;21312;-77
2022/05/11 00:09:03;;;;;;;10.75;4.40;;;;;;;5.93;52.05;100211.75;1679862;85;21233;-78
2022/05/11 00:12:09;;;;;;;6.12;3.70;;;;;;;5.84;52.29;100207.18;1679924;85;21261;-77
2022/05/11 00:15:16;;;;;;;13.22;3.83;;;;;;;5.75;52.52;100208.92;1680981;85;21182;-77
2022/05/11 00:18:22;;;;;;;9.68;3.87;;;;;;;5.68;52.72;100211.00;1680284;85;21221;-77
2022/05/11 00:21:29;;;;;;;16.00;4.78;;;;;;;5.61;52.85;100209.39;1680675;85;21829;-77
2022/05/11 00:24:35;;;;;;;9.13;4.62;;;;;;;5.54;53.03;100209.61;1681184;85;21257;-78
2022/05/11 00:27:41;;;;;;;10.08;4.50;;;;;;;5.43;53.16;100213.35;1680733;85;21262;-78
2022/05/11 00:30:46;;;;;;;10.13;4.00;;;;;;;5.35;53.30;100210.00;1681257;85;21169;-77
2022/05/11 00:33:53;;;;;;;7.75;3.62;;;;;;;5.28;53.49;100216.17;1679955;85;21700;-78
2022/05/11 00:36:59;;;;;;;13.00;4.45;;;;;;;5.20;53.67;100218.23;1678664;85;21205;-78
2022/05/11 00:40:05;;;;;;;15.32;4.20;;;;;;;5.11;53.97;100212.31;1681104;85;21833;-77
2022/05/11 00:43:11;;;;;;;24.65;4.90;;;;;;;5.03;54.01;100218.95;1680359;85;21249;-78
2022/05/11 00:46:43;;;;;;;11.50;4.25;;;;;;;4.95;54.15;100209.34;1680551;85;21245;-78
2022/05/11 00:49:56;;;;;;;10.88;4.08;;;;;;;4.90;54.29;100210.27;1681159;85;21754;-77
2022/05/11 00:53:14;;;;;;;11.80;4.20;;;;;;;4.83;54.51;100210.81;1680236;85;21193;-78
2022/05/11 00:56:20;;;;;;;9.58;4.58;;;;;;;4.78;54.69;100216.31;1680529;85;21181;-77
2022/05/11 00:59:29;;;;;;;12.93;3.85;;;;;;;4.75;54.83;100211.16;1679818;85;21193;-77
2022/05/11 01:02:35;;;;;;;11.38;4.75;;;;;;;4.71;55.01;100210.61;1679978;85;21269;-77
2022/05/11 01:05:41;;;;;;;8.88;4.42;;;;;;;4.67;55.14;100209.67;1680987;85;21257;-77
2022/05/11 01:08:47;;;;;;;6.05;3.45;;;;;;;4.64;55.20;100213.52;1680021;85;21248;-77
2022/05/11 01:11:58;;;;;;;14.78;3.90;;;;;;;4.60;55.42;100212.08;1679836;85;21540;-77
2022/05/11 01:15:04;;;;;;;10.03;4.10;;;;;;;4.55;55.57;100210.28;1681332;85;21774;-78
2022/05/11 01:18:10;;;;;;;15.58;4.53;;;;;;;4.52;55.74;100211.94;1680333;85;21257;-77
2022/05/11 01:21:14;;;;;;;6.90;3.05;;;;;;;4.47;55.92;100208.77;1679799;85;21217;-77
2022/05/11 01:24:40;;;;;;;10.10;4.00;;;;;;;4.45;56.06;100211.62;1679937;85;21193;-77
2022/05/11 01:27:50;;;;;;;8.95;3.67;;;;;;;4.41;56.16;100212.89;1679900;85;21229;-77
2022/05/11 01:30:59;;;;;;;7.80;3.70;;;;;;;4.37;56.19;100210.10;1681522;85;21182;-77
2022/05/11 01:34:05;;;;;;;10.25;3.80;;;;;;;4.35;55.99;100212.11;1681197;85;22462;-77
2022/05/11 01:37:10;;;;;;;8.90;3.58;;;;;;;4.32;55.90;100206.45;1661403;85;21201;-77
2022/05/11 01:40:16;;;;;;;10.05;3.40;;;;;;;4.31;55.78;100206.11;1681125;85;21178;-78
2022/05/11 01:43:27;;;;;;;9.28;3.40;;;;;;;4.30;55.72;100201.69;1681057;85;21221;-77
2022/05/11 01:46:34;;;;;;;9.95;4.05;;;;;;;4.30;55.64;100200.84;1681428;85;21213;-77
2022/05/11 01:49:39;;;;;;;11.50;3.55;;;;;;;4.29;55.53;100201.84;1681268;85;21194;-78
2022/05/11 01:52:46;;;;;;;7.47;3.20;;;;;;;4.28;55.44;100195.57;1680077;85;21209;-77
2022/05/11 01:55:52;;;;;;;7.00;3.10;;;;;;;4.27;55.33;100190.27;1679923;85;21197;-77
2022/05/11 01:58:59;;;;;;;8.35;3.35;;;;;;;4.27;55.20;100195.69;1679834;85;21292;-77
2022/05/11 02:01:58;;;;;;;11.35;3.60;;;;;;;4.28;55.20;100188.80;1681113;85;21329;-77
2022/05/11 02:08:26;;;;;;;11.70;4.67;;;;;;;4.27;55.17;100195.19;1680356;85;21749;-78
2022/05/11 02:11:31;;;;;;;17.27;4.97;;;;;;;4.25;55.06;100189.06;1681099;85;21755;-77
2022/05/11 02:14:37;;;;;;;22.85;5.85;;;;;;;4.23;55.04;100183.42;1681099;85;21791;-78
2022/05/11 02:17:42;;;;;;;21.90;6.65;;;;;;;4.22;54.90;100188.48;1680594;85;21232;-77
2022/05/11 02:20:48;;;;;;;17.98;6.12;;;;;;;4.21;54.83;100184.92;1681109;85;21173;-77
2022/05/11 02:23:55;;;;;;;15.60;6.10;;;;;;;4.27;54.76;100189.77;1680461;85;21201;-77
2022/05/11 02:27:01;;;;;;;18.27;6.55;;;;;;;4.43;54.51;100186.55;1680887;85;21786;-77
2022/05/11 02:30:07;;;;;;;21.05;5.78;;;;;;;4.61;54.06;100187.57;1681140;85;21178;-77
2022/05/11 02:33:12;;;;;;;16.77;5.90;;;;;;;4.79;53.60;100190.41;1681169;85;21270;-78
2022/05/11 02:36:18;;;;;;;26.27;6.85;;;;;;;5.00;53.20;100182.16;1681105;85;21253;-78
2022/05/11 02:39:23;;;;;;;16.50;6.40;;;;;;;5.28;52.44;100181.77;1672501;85;21222;-78
2022/05/11 02:42:29;;;;;;;18.25;5.85;;;;;;;5.63;51.69;100178.38;1670841;86;21226;-82
2022/05/11 02:45:35;;;;;;;22.00;6.20;;;;;;;6.02;50.83;100182.83;1671094;86;21226;-82
2022/05/11 02:48:41;;;;;;;27.35;6.97;;;;;;;6.31;50.00;100174.05;1669874;86;21225;-82
2022/05/11 02:51:55;;;;;;;17.55;6.80;;;;;;;6.69;49.15;100168.50;1874194;76;22757;-82
2022/05/11 02:55:01;;;;;;;18.48;6.22;;;;;;;6.82;48.67;100172.55;1818265;79;21152;-78
2022/05/11 02:58:07;;;;;;;19.27;5.65;;;;;;;6.99;48.25;100180.33;1817203;79;21184;-78
2022/05/11 03:01:08;;;;;;;17.30;5.63;;;;;;;7.10;47.85;100178.71;1817412;79;21153;-78
2022/05/11 03:04:14;;;;;;;14.53;5.37;;;;;;;7.20;47.69;100175.05;1817983;79;21164;-78
2022/05/11 03:07:21;;;;;;;17.80;5.42;;;;;;;7.32;47.57;100178.73;1817660;79;21184;-78
2022/05/11 03:10:26;;;;;;;20.77;6.35;;;;;;;7.50;47.51;100176.48;1817401;79;21184;-78
2022/05/11 03:13:32;;;;;;;19.65;5.15;;;;;;;7.71;47.27;100177.45;1816757;79;21255;-78
2022/05/11 03:16:39;;;;;;;13.48;5.70;;;;;;;7.90;46.93;100178.09;1817844;79;21153;-78
2022/05/11 03:19:44;;;;;;;13.70;4.83;;;;;;;8.10;46.76;100183.29;1817932;79;21188;-78
2022/05/11 03:22:50;;;;;;;17.52;5.45;;;;;;;8.30;46.44;100187.96;1817401;79;21188;-78
2022/05/11 03:25:49;;;;;;;16.27;5.87;;;;;;;8.47;46.29;100191.61;1818035;79;21196;-78
2022/05/11 03:28:56;;;;;;;15.00;5.80;;;;;;;8.61;46.11;100193.70;1816548;79;21180;-78
2022/05/11 03:35:19;;;;;;;16.85;5.67;;;;;;;8.85;46.15;100194.29;1818054;79;21207;-78
2022/05/11 03:38:25;;;;;;;9.38;5.17;;;;;;;9.02;46.12;100195.14;1817042;79;21191;-78
2022/05/11 03:41:30;;;;;;;25.62;5.00;;;;;;;9.17;46.20;100195.69;1817106;79;21187;-78
2022/05/11 03:44:36;;;;;;;13.22;5.37;;;;;;;9.36;45.79;100194.98;1817895;79;21192;-78
2022/05/11 03:47:42;;;;;;;8.38;4.60;;;;;;;9.50;45.67;100196.16;1817564;79;21219;-78
2022/05/11 03:50:48;;;;;;;10.55;4.15;;;;;;;9.62;45.86;100200.26;1814225;79;21180;-78
2022/05/11 03:53:54;;;;;;;13.30;4.47;;;;;;;9.67;45.48;100200.08;1802617;79;21228;-78
2022/05/11 03:57:00;;;;;;;12.45;3.67;;;;;;;9.70;45.60;100203.84;1803852;79;21231;-78
2022/05/11 04:00:08;;;;;;;12.23;4.22;;;;;;;9.77;45.40;100203.13;1802660;79;21157;-78
2022/05/11 04:03:13;;;;;;;7.78;3.17;;;;;;;9.83;44.82;100203.79;1801866;79;21172;-78
2022/05/11 04:06:20;;;;;;;6.85;3.00;;;;;;;9.91;44.62;100199.69;1803053;79;21176;-79
2022/05/11 04:09:26;;;;;;;4.92;2.83;;;;;;;10.01;44.51;100208.53;1803501;79;21180;-78
2022/05/11 04:12:31;;;;;;;5.97;2.77;;;;;;;10.10;42.76;100203.37;1802261;79;21231;-78
2022/05/11 04:15:38;;;;;;;5.05;2.92;;;;;;;10.22;42.82;100203.35;1803468;79;21196;-78
2022/05/11 04:18:45;;;;;;;4.85;2.62;;;;;;;10.38;42.22;100213.39;1802023;79;21215;-78
2022/05/11 04:21:50;;;;;;;9.28;2.62;;;;;;;10.52;41.89;100207.69;1802660;79;21169;-78
2022/05/11 04:24:57;;;;;;;11.85;3.05;;;;;;;10.65;41.49;100216.17;1803493;79;21153;-78
2022/05/11 04:28:02;;;;;;;7.33;2.58;;;;;;;10.75;41.40;100219.53;1802580;79;21234;-78
2022/05/11 04:31:15;;;;;;;6.10;2.80;;;;;;;10.87;42.44;100221.84;1803413;79;21738;-78
2022/05/11 04:34:21;;;;;;;7.67;2.30;;;;;;;11.03;42.16;100212.18;1803502;79;21217;-78
2022/05/11 04:37:26;;;;;;;8.88;2.62;;;;;;;11.19;41.91;100216.67;1803280;79;21710;-78
2022/05/11 04:40:26;;;;;;;10.25;2.55;;;;;;;11.35;42.46;100211.09;1802087;79;21161;-78
2022/05/11 04:43:31;;;;;;;6.78;2.58;;;;;;;11.50;42.30;100213.34;1802394;79;21193;-78
2022/05/11 04:46:37;;;;;;;9.05;2.47;;;;;;;11.67;42.14;100214.58;1803619;79;21154;-78
2022/05/11 04:49:43;;;;;;;6.92;2.72;;;;;;;11.82;41.59;100211.86;1803552;79;21170;-78
2022/05/11 04:52:50;;;;;;;14.43;2.50;;;;;;;12.03;41.87;100211.47;1801256;79;21232;-79
2022/05/11 04:55:56;;;;;;;4.42;1.95;;;;;;;12.24;41.39;100220.34;1803580;79;21687;-79
2022/05/11 04:59:01;;;;;;;6.33;2.50;;;;;;;12.42;40.84;100223.19;1801997;79;21758;-78
2022/05/11 05:02:09;;;;;;;7.12;2.20;;;;;;;12.61;40.33;100222.63;1781711;79;21184;-78
2022/05/11 05:05:15;;;;;;;7.42;2.37;;;;;;;12.79;38.70;100222.19;1803661;79;21515;-78
2022/05/11 05:08:23;;;;;;;4.33;2.10;;;;;;;12.91;37.90;100233.53;1802539;79;21169;-78
2022/05/11 05:11:28;;;;;;;8.10;2.45;;;;;;;13.00;37.28;100224.14;1762310;80;21150;-79
2022/05/11 05:14:33;;;;;;;6.45;1.80;;;;;;;13.11;37.30;100233.75;1775889;80;21193;-78
2022/05/11 05:17:38;;;;;;;4.75;2.02;;;;;;;13.23;37.16;100233.08;1739011;81;21190;-78
2022/05/11 05:20:43;;;;;;;6.67;1.70;;;;;;;13.39;35.15;100233.34;1779723;80;21169;-78
2022/05/11 05:23:49;;;;;;;3.37;1.85;;;;;;;13.58;34.97;100224.11;1778921;79;21130;-79
2022/05/11 05:26:55;;;;;;;4.15;1.60;;;;;;;13.74;33.98;100230.70;1798932;79;21794;-79
2022/05/11 05:33:25;;;;;;;6.70;1.90;;;;;;;14.09;33.56;100232.12;1802735;79;21172;-79
2022/05/11 05:36:31;;;;;;;3.77;1.92;;;;;;;14.23;32.11;100227.03;1802762;79;21149;-78
2022/05/11 05:39:37;;;;;;;4.53;1.80;;;;;;;14.26;31.46;100226.11;1802571;79;21209;-78
2022/05/11 05:42:43;;;;;;;8.05;2.12;;;;;;;14.27;31.08;100218.70;1802251;79;21305;-78
2022/05/11 05:45:51;;;;;;;4.10;1.77;;;;;;;14.28;31.13;100225.89;1801518;79;21165;-79
2022/05/11 05:48:58;;;;;;;7.60;1.57;;;;;;;14.34;31.31;100225.08;1792660;79;21773;-79
2022/05/11 05:52:06;;;;;;;3.08;1.75;;;;;;;14.43;32.03;100218.88;1789133;79;21185;-79
2022/05/11 05:55:14;;;;;;;6.28;1.60;;;;;;;14.54;30.67;100231.59;1802933;79;21192;-79
2022/05/11 05:58:20;;;;;;;10.82;2.17;;;;;;;14.55;31.43;100233.28;1802921;79;21208;-83
2022/05/11 06:01:25;;;;;;;9.83;2.10;;;;;;;14.62;30.20;100235.20;1777494;79;22012;-83
2022/05/11 06:04:31;;;;;;;8.88;2.25;;;;;;;14.66;30.42;100237.34;1784870;79;21145;-83
2022/05/11 06:07:36;;;;;;;5.60;1.27;;;;;;;14.74;31.30;100234.95;1783042;79;21190;-83
2022/05/11 06:10:43;;;;;;;8.55;1.70;;;;;;;14.86;30.79;100236.58;1780970;79;21238;-83
2022/05/11 06:13:49;;;;;;;8.15;1.50;;;;;;;14.94;31.08;100238.62;1781684;79;21180;-83
2022/05/11 06:16:55;;;;;;;11.73;2.08;;;;;;;15.01;30.35;100238.67;1754135;81;21170;-83
2022/05/11 06:20:01;;;;;;;7.20;1.35;;;;;;;15.00;29.42;100236.95;1730823;81;21218;-84
2022/05/11 06:23:08;;;;;;;3.55;1.42;;;;;;;14.90;30.03;100244.22;1777404;79;21302;-83
2022/05/11 06:26:16;;;;;;;4.35;1.60;;;;;;;14.80;29.63;100234.13;1779117;79;21130;-81
2022/05/11 06:29:23;;;;;;;9.73;1.55;;;;;;;14.75;30.09;100244.91;1781852;79;21137;-81
2022/05/11 06:32:28;;;;;;;6.20;1.75;;;;;;;14.74;29.94;100237.71;1775413;79;21177;-81
2022/05/11 06:35:33;;;;;;;4.80;1.55;;;;;;;14.72;31.92;100249.44;1765174;81;21201;-81
2022/05/11 06:38:39;;;;;;;8.53;2.00;;;;;;;14.72;29.89;100243.93;1721605;81;21197;-81
2022/05/11 06:41:38;;;;;;;9.98;2.02;;;;;;;14.65;29.70;100252.70;1775842;79;21126;-82
2022/05/11 06:44:30;;;;;;;7.28;2.08;;;;;;;14.55;30.53;100252.55;1788703;80;21749;-81
2022/05/11 06:47:36;;;;;;;7.57;2.33;;;;;;;14.56;31.74;100238.25;1793049;80;21197;-81
2022/05/11 06:50:42;;;;;;;5.70;2.47;;;;;;;14.68;30.25;100253.65;1790236;79;21121;-83
2022/05/11 07:00:38;;;;;;;7.62;2.98;;;;;;;14.69;30.23;100242.45;1739599;81;21144;-83
2022/05/11 07:03:44;;;;;;;8.38;1.95;;;;;;;14.69;30.61;100233.34;1750351;81;21731;-83
2022/05/11 07:06:52;;;;;;;9.33;2.47;;;;;;;14.73;30.24;100245.66;1733502;81;21158;-83
2022/05/11 07:09:58;;;;;;;3.83;2.00;;;;;;;14.75;30.02;100238.03;1722361;81;21230;-83
2022/05/11 07:13:04;;;;;;;4.78;1.50;;;;;;;14.71;30.15;100238.95;1739307;81;21196;-82
2022/05/11 07:16:11;;;;;;;18.82;1.90;;;;;;;14.77;30.14;100229.02;1753441;81;21157;-83
2022/05/11 07:19:21;;;;;;;5.40;1.77;;;;;;;14.83;30.90;100228.22;1732650;81;21154;-82
2022/05/11 07:22:25;;;;;;;6.80;2.25;;;;;;;14.93;30.51;100238.31;1738909;81;21180;-83
2022/05/11 07:25:32;;;;;;;14.87;2.05;;;;;;;15.00;29.57;100225.92;1726352;83;21168;-82
2022/05/11 07:28:37;;;;;;;9.90;2.08;;;;;;;15.01;30.93;100220.23;1745880;81;22091;-83
2022/05/11 07:31:43;;;;;;;7.80;2.17;;;;;;;15.08;31.06;100219.70;1742112;81;21192;-83
2022/05/11 07:34:49;;;;;;;3.10;1.60;;;;;;;15.16;29.63;100208.19;1745939;81;21671;-83
2022/05/11 07:37:56;;;;;;;3.80;1.67;;;;;;;15.22;29.28;100200.45;1722913;82;21197;-83
2022/05/11 07:41:02;;;;;;;4.90;2.27;;;;;;;15.22;30.75;100209.56;1750239;81;21254;-83
2022/05/11 07:44:08;;;;;;;5.62;2.17;;;;;;;15.29;29.98;100209.56;1749019;81;21142;-83
2022/05/11 07:47:14;;;;;;;5.22;2.45;;;;;;;15.36;30.20;100201.33;1726803;82;21196;-83
2022/05/11 07:50:20;;;;;;;4.92;2.35;;;;;;;15.36;29.45;100209.06;1728355;82;21146;-83
2022/05/11 07:53:25;;;;;;;6.17;1.95;;;;;;;15.31;29.29;100209.69;1732699;82;21746;-83
2022/05/11 07:59:56;;;;;;;8.10;2.33;;;;;;;15.34;30.89;100194.66;1715507;82;21639;-82
2022/05/11 08:03:01;;;;;;;11.95;2.70;;;;;;;15.37;29.41;100210.75;1713737;83;21787;-83
2022/05/11 08:06:06;;;;;;;9.53;2.85;;;;;;;15.32;28.41;100206.41;1787094;80;21158;-83
2022/05/11 08:09:13;;;;;;;8.63;2.27;;;;;;;15.29;28.22;100200.80;1774529;79;21723;-83
2022/05/11 08:12:21;;;;;;;5.12;1.82;;;;;;;15.33;30.16;100191.03;1712853;82;21212;-83
2022/05/11 08:15:31;;;;;;;7.17;2.30;;;;;;;15.39;29.16;100196.25;1775749;79;21169;-83
2022/05/11 08:18:35;;;;;;;7.72;1.75;;;;;;;15.37;28.69;100176.30;1774873;79;21251;-83
2022/05/11 08:21:41;;;;;;;7.33;2.02;;;;;;;15.36;29.48;100195.81;1723298;82;21142;-83
2022/05/11 08:24:47;;;;;;;4.75;2.00;;;;;;;15.38;28.40;100186.27;1744123;81;21213;-83
2022/05/11 08:27:53;;;;;;;7.92;2.05;;;;;;;15.37;29.16;100174.08;1777720;79;21149;-83
2022/05/11 08:34:23;;;;;;;5.55;2.25;;;;;;;15.45;29.37;100165.08;1784877;79;21140;-83
2022/05/11 08:37:29;;;;;;;6.37;1.87;;;;;;;15.53;27.81;100173.69;1720629;82;21178;-83
2022/05/11 08:40:46;;;;;;;6.90;2.00;;;;;;;15.51;28.70;100182.14;1712353;82;21193;-83
2022/05/11 08:43:51;;;;;;;4.40;1.77;;;;;;;15.44;27.84;100166.15;1717841;82;21185;-83
2022/05/11 08:47:16;;;;;;;9.98;2.77;;;;;;;15.43;27.59;100164.45;1764097;81;21702;-82
2022/05/11 08:50:27;;;;;;;3.58;1.92;;;;;;;15.49;29.61;100158.63;1748359;81;21137;-83
2022/05/11 08:53:47;;;;;;;11.97;2.08;;;;;;;15.59;29.50;100146.09;1752079;81;21197;-83
2022/05/11 08:56:55;;;;;;;8.83;2.20;;;;;;;15.70;29.24;100137.73;1745635;81;21201;-83
2022/05/11 09:00:07;;;;;;;5.20;1.90;;;;;;;15.72;28.41;100134.25;1740565;82;21169;-83
2022/05/11 09:03:31;;;;;;;4.28;1.75;;;;;;;15.72;30.23;100130.12;1724886;82;21727;-83
2022/05/11 09:06:43;;;;;;;6.15;2.17;;;;;;;15.80;29.54;100124.35;1726829;82;21157;-83
2022/05/11 09:09:47;;;;;;;13.08;2.40;;;;;;;15.91;28.45;100135.28;1720813;82;21229;-83
2022/05/11 09:12:54;;;;;;;7.30;1.90;;;;;;;15.96;29.44;100138.23;1723466;82;21197;-79
2022/05/11 09:16:06;;;;;;;7.78;1.82;;;;;;;15.96;28.33;100123.06;1710259;83;21197;-79
2022/05/11 09:19:29;;;;;;;3.37;1.82;;;;;;;15.98;29.06;100118.17;1708053;84;21233;-79
2022/05/11 09:22:34;;;;;;;5.80;2.30;;;;;;;16.03;29.38;100114.76;1699760;82;21734;-78
2022/05/11 09:25:44;;;;;;;6.17;2.12;;;;;;;16.05;28.79;100120.39;1715436;83;21243;-79
2022/05/11 09:28:52;;;;;;;7.20;2.15;;;;;;;16.05;29.23;100110.73;1704221;84;21231;-78
2022/05/11 09:31:59;;;;;;;5.03;2.10;;;;;;;16.07;28.98;100115.48;1704005;84;21288;-79
2022/05/11 09:35:24;;;;;;;4.65;2.25;;;;;;;16.14;28.60;100118.75;1707249;83;21158;-79
2022/05/11 09:38:44;;;;;;;5.50;2.52;;;;;;;16.17;28.82;100115.03;1724809;83;21208;-79
2022/05/11 09:41:53;;;;;;;6.40;2.05;;;;;;;16.20;29.58;100117.37;1734882;82;21170;-79
2022/05/11 09:44:59;;;;;;;6.03;2.55;;;;;;;16.25;28.41;100127.75;1734975;82;21207;-79
2022/05/11 09:48:12;;;;;;;5.67;2.85;;;;;;;16.22;28.51;100113.84;1733597;82;21220;-79
2022/05/11 09:51:29;;;;;;;8.38;2.20;;;;;;;16.18;28.38;100124.16;1703624;82;21154;-79
2022/05/11 09:54:48;;;;;;;4.22;1.77;;;;;;;16.16;28.51;100120.78;1703945;84;21217;-79
2022/05/11 09:58:11;;;;;;;6.00;2.47;;;;;;;16.14;28.76;100110.47;1710092;83;21302;-79
2022/05/11 10:01:27;;;;;;;7.78;2.22;;;;;;;16.19;29.87;100102.42;1720926;83;21154;-79
2022/05/11 10:04:37;;;;;;;11.22;2.37;;;;;;;16.29;28.39;100108.31;1714718;82;21162;-79
2022/05/11 10:07:41;;;;;;;7.20;2.17;;;;;;;16.33;28.92;100105.44;1716240;83;21756;-79
2022/05/11 10:10:56;;;;;;;4.05;2.00;;;;;;;16.39;29.20;100112.84;1713235;81;21719;-79
2022/05/11 10:25:00;;;;;;;4.17;2.12;;;;;;;16.63;28.03;100111.77;1713025;82;21145;-80
2022/05/11 10:28:42;;;;;;;5.83;2.17;;;;;;;16.64;28.10;100103.25;1725777;81;21160;-79
2022/05/11 10:31:52;;;;;;;4.65;2.10;;;;;;;16.69;28.83;100106.73;1721034;81;21169;-79
2022/05/11 10:35:11;;;;;;;4.35;2.33;;;;;;;16.74;28.57;100112.47;1704754;83;21168;-79
2022/05/11 10:38:44;;;;;;;4.62;1.98;;;;;;;16.72;28.22;100108.55;1733126;82;21240;-79
2022/05/11 10:42:12;;;;;;;5.35;2.00;;;;;;;16.72;28.89;100102.19;1699698;82;21213;-79
2022/05/11 10:45:28;;;;;;;9.15;2.47;;;;;;;16.74;28.29;100101.42;1722141;83;21220;-79
2022/05/11 10:48:45;;;;;;;4.72;2.05;;;;;;;16.77;29.30;100094.92;1726902;81;21180;-79
2022/05/11 10:52:12;;;;;;;8.78;2.00;;;;;;;16.83;28.44;100098.17;1695505;81;21172;-79
2022/05/11 10:55:53;;;;;;;10.53;2.22;;;;;;;16.90;28.81;100101.45;1641158;86;21349;-79
2022/05/11 10:59:24;;;;;;;;;;;;;;;16.91;27.61;100090.16;1708837;83;21189;-79
2022/05/11 11:02:56;;;;;;;4.15;1.90;;;;;;;16.94;29.18;100088.34;1710710;83;20199;-83
2022/05/11 11:10:33;;;;;;;9.00;2.10;;;;;;;17.10;29.25;100091.93;1700208;82;21763;-81
2022/05/11 11:14:05;;;;;;;5.97;2.27;;;;;;;17.11;29.01;100083.10;1725353;83;21206;-82
2022/05/11 11:17:12;;;;;;;5.87;2.17;;;;;;;17.14;28.45;100076.30;1725305;83;21766;-82
2022/05/11 11:20:24;;;;;;;6.20;2.33;;;;;;;17.15;29.41;100082.13;1771914;81;21262;-82
2022/05/11 11:23:35;;;;;;;6.42;2.12;;;;;;;17.19;28.47;100078.69;1772020;81;21158;-82
2022/05/11 11:27:11;;;;;;;10.68;1.95;;;;;;;17.18;28.66;100084.45;1771800;81;21185;-82
2022/05/11 11:30:26;;;;;;;5.85;1.60;;;;;;;17.18;30.00;100064.56;1771633;81;21130;-81
2022/05/11 11:33:31;;;;;;;7.35;2.25;;;;;;;17.23;29.11;100056.44;1771329;81;21189;-82
2022/05/11 11:36:40;;;;;;;4.22;2.35;;;;;;;17.31;29.30;100064.97;1773112;80;21809;-82
2022/05/11 11:40:04;;;;;;;8.48;2.15;;;;;;;17.33;28.31;100064.22;1739769;81;21157;-81
2022/05/11 11:44:11;;;;;;;3.95;2.00;;;;;;;17.33;28.89;100060.08;1774703;80;21161;-82
2022/05/11 11:46:47;;;;;;;7.78;2.00;;;;;;;17.37;28.01;100075.14;1719717;80;21153;-82
2022/05/11 11:49:54;;;;;;;7.20;2.20;;;;;;;17.35;28.03;100068.43;1698058;84;21195;-82
2022/05/11 11:53:16;;;;;;;3.05;1.70;;;;;;;17.34;27.90;100063.14;1764690;81;21192;-83
2022/05/11 11:56:40;;;;;;;4.03;1.80;;;;;;;17.34;28.64;100065.36;1724907;81;21193;-82
2022/05/11 11:59:53;;;;;;;5.67;1.67;;;;;;;17.36;27.51;100066.51;1728766;82;21195;-82
2022/05/11 12:03:05;;;;;;;7.77;1.67;;;;;;;17.31;27.49;100060.31;1779518;80;21181;-82
2022/05/11 12:16:17;;;;;;;8.58;2.40;;;;;;;17.36;27.79;100047.16;1777685;80;21157;-78
2022/05/11 12:19:13;;;;;;;7.58;2.22;;;;;;;17.36;27.53;100051.30;1777852;80;21228;-78
2022/05/11 12:22:22;;;;;;;12.75;2.30;;;;;;;17.33;28.00;100050.40;1778937;80;21252;-78
2022/05/11 12:25:36;;;;;;;11.50;2.30;;;;;;;17.33;28.12;100051.78;1775544;80;21721;-78
2022/05/11 12:29:54;;;;;;;10.08;2.62;;;;;;;17.33;28.25;100046.25;1771461;80;21252;-79
2022/05/11 12:32:06;;;;;;;5.90;2.37;;;;;;;17.35;27.37;100055.15;1747555;81;21307;-78
2022/05/11 12:35:22;;;;;;;6.17;2.90;;;;;;;17.36;28.30;100050.80;1754253;82;21180;-78
2022/05/11 12:38:39;;;;;;;8.90;2.72;;;;;;;17.37;27.64;100052.48;1751911;81;21200;-78
2022/05/11 12:41:45;;;;;;;4.67;2.10;;;;;;;17.35;28.38;100047.70;1754353;81;21141;-78
2022/05/11 12:44:51;;;;;;;3.87;1.70;;;;;;;17.34;27.82;100040.48;1754359;82;21653;-77
2022/05/11 12:48:02;;;;;;;4.97;2.20;;;;;;;17.34;28.10;100036.87;1731523;82;21243;-78
2022/05/11 12:51:13;;;;;;;6.37;2.37;;;;;;;17.35;27.90;100056.53;1754908;82;21726;-78
2022/05/11 12:54:25;;;;;;;5.17;1.75;;;;;;;17.34;27.75;100052.08;1754817;82;21204;-78
2022/05/11 12:57:30;;;;;;;10.25;2.20;;;;;;;17.30;28.33;100042.55;1731616;82;21180;-78
2022/05/11 13:00:35;;;;;;;7.75;2.02;;;;;;;17.28;28.19;100044.70;1718422;83;21744;-78
2022/05/11 13:03:43;;;;;;;8.85;2.00;;;;;;;17.32;28.34;100035.73;1742027;81;21189;-78
2022/05/11 13:06:53;;;;;;;6.67;1.87;;;;;;;17.37;28.50;100036.44;1735210;81;21161;-78
2022/05/11 13:10:03;;;;;;;6.05;2.27;;;;;;;17.40;28.01;100037.88;1770313;81;21668;-79
2022/05/11 13:13:13;;;;;;;9.23;2.22;;;;;;;17.36;28.06;100036.09;1771721;80;21153;-78
2022/05/11 13:16:28;;;;;;;3.37;2.17;;;;;;;17.38;28.47;100032.59;1772100;81;21161;-78
2022/05/11 13:19:38;;;;;;;15.23;2.17;;;;;;;17.41;28.89;100028.00;1770913;81;21750;-78
2022/05/11 13:22:44;;;;;;;9.43;2.30;;;;;;;17.43;27.90;100040.20;1771744;80;22174;-78
2022/05/11 13:25:54;;;;;;;3.70;2.20;;;;;;;17.39;28.53;100031.51;1771847;81;21196;-78
2022/05/11 13:29:12;;;;;;;18.10;2.50;;;;;;;17.38;28.02;100027.06;1771185;81;21232;-78
2022/05/11 13:32:18;;;;;;;4.58;2.10;;;;;;;17.36;27.35;100035.59;1771778;80;22000;-78
2022/05/11 13:35:34;;;;;;;5.08;1.90;;;;;;;17.36;27.44;100039.73;1771945;81;21161;-78
2022/05/11 13:38:39;;;;;;;7.80;2.37;;;;;;;17.38;27.54;100038.12;1770675;81;21220;-78
2022/05/11 13:41:55;;;;;;;7.17;2.50;;;;;;;17.37;27.72;100029.52;1771983;81;21177;-78
2022/05/11 13:45:08;;;;;;;5.90;2.42;;;;;;;17.37;27.98;100029.52;1771941;81;21196;-78
2022/05/11 13:48:16;;;;;;;5.83;2.42;;;;;;;17.36;27.82;100031.45;1771118;81;21240;-78
2022/05/11 13:51:33;;;;;;;9.58;2.17;;;;;;;17.34;27.47;100024.44;1771943;81;21212;-79
2022/05/11 13:54:45;;;;;;;6.15;2.10;;;;;;;17.34;27.73;100023.05;1754292;81;21710;-78
2022/05/11 13:57:51;;;;;;;5.05;2.40;;;;;;;17.36;29.12;100027.80;1770421;81;21208;-78
2022/05/11 14:00:58;;;;;;;8.85;3.10;;;;;;;17.38;28.16;100027.06;1772122;80;21149;-78
2022/05/11 14:04:06;;;;;;;7.28;3.00;;;;;;;17.41;29.12;100022.47;1785291;80;21153;-78
2022/05/11 14:07:19;;;;;;;5.40;2.62;;;;;;;17.43;29.20;100021.69;1785166;80;21164;-78
2022/05/11 14:10:25;;;;;;;15.95;2.83;;;;;;;17.45;28.62;100033.89;1784361;80;21161;-78
2022/05/11 14:13:30;;;;;;;8.95;3.35;;;;;;;17.43;27.76;100027.22;1784397;79;21160;-78
2022/05/11 14:16:37;;;;;;;8.53;4.33;;;;;;;17.44;28.10;100027.52;1785237;80;21184;-78
2022/05/11 14:19:43;;;;;;;6.53;2.37;;;;;;;17.45;28.76;100032.51;1784861;80;21192;-78
2022/05/11 14:22:51;;;;;;;9.05;2.12;;;;;;;17.46;28.80;100026.78;1785572;80;21223;-78
2022/05/11 14:25:57;;;;;;;15.13;6.75;;;;;;;17.47;28.77;100025.70;1785309;80;21164;-78
2022/05/11 14:29:03;;;;;;;4.83;2.20;;;;;;;17.46;28.23;100024.02;1784339;80;21195;-78
2022/05/11 14:32:13;;;;;;;5.17;2.27;;;;;;;17.44;27.88;100026.14;1785630;79;21659;-78
2022/05/11 14:35:35;;;;;;;14.55;5.80;;;;;;;17.43;28.63;100026.38;1785412;80;21128;-78
2022/05/11 14:38:39;;;;;;;9.98;4.30;;;;;;;17.41;28.06;100028.00;1784071;80;21195;-78
2022/05/11 14:41:45;;;;;;;5.62;2.45;;;;;;;17.40;28.63;100017.98;1785304;80;21148;-78
2022/05/11 14:44:51;;;;;;;5.08;2.00;;;;;;;17.38;29.55;100021.53;1784687;80;21239;-79
2022/05/11 14:48:01;;;;;;;14.40;1.92;;;;;;;17.36;29.23;100026.42;1784563;80;21196;-78
2022/05/11 14:51:09;;;;;;;3.98;2.17;;;;;;;17.31;29.19;100022.99;1784140;80;21168;-78
2022/05/11 14:54:15;;;;;;;6.35;2.60;;;;;;;17.25;29.15;100020.27;1785256;80;21857;-79
2022/05/11 15:04:08;;;;;;;3.87;1.90;;;;;;;17.19;29.70;100021.19;1771598;80;21766;-78
2022/05/11 15:07:14;;;;;;;8.38;2.25;;;;;;;17.12;29.24;100019.84;1771593;80;21184;-78
2022/05/11 15:10:20;;;;;;;2.98;1.70;;;;;;;17.04;29.84;100022.38;1771446;81;21682;-78
2022/05/11 15:13:33;;;;;;;6.30;2.35;;;;;;;17.00;29.78;100019.75;1771992;81;21251;-78
2022/05/11 15:16:44;;;;;;;5.65;2.00;;;;;;;16.99;29.67;100019.45;1771788;81;21196;-78
2022/05/11 15:19:50;;;;;;;3.25;1.92;;;;;;;16.97;29.31;100016.59;1771907;81;21153;-78
2022/05/11 15:22:58;;;;;;;8.25;2.22;;;;;;;16.97;29.72;100022.11;1754567;81;21212;-79
2022/05/11 15:26:04;;;;;;;9.38;2.20;;;;;;;16.94;30.22;100026.19;1771795;81;21212;-78
2022/05/11 15:29:11;;;;;;;8.20;2.62;;;;;;;16.96;30.21;100028.17;1771876;81;21145;-82
2022/05/11 15:32:19;;;;;;;4.92;2.22;;;;;;;16.96;30.64;100029.55;1771734;81;21204;-79
2022/05/11 15:35:26;;;;;;;6.28;2.22;;;;;;;16.96;30.93;100029.55;1772032;81;21168;-82